createdAt,value
2022-12-14T00:00:08.528Z,13.23
2022-12-14T00:02:37.538Z,13.07
2022-12-14T00:05:07.046Z,17.93
2022-12-14T00:07:35.720Z,24.43
2022-12-14T00:10:04.411Z,16.73
2022-12-14T00:12:40.416Z,15.00
2022-12-14T00:15:10.119Z,13.43
2022-12-14T00:17:38.454Z,13.20
2022-12-14T00:20:08.071Z,13.97
2022-12-14T00:22:36.869Z,12.77
2022-12-14T00:25:05.824Z,13.20
2022-12-14T00:27:37.441Z,12.80
2022-12-14T00:30:09.281Z,11.23
2022-12-14T00:32:38.098Z,13.23
2022-12-14T00:35:07.239Z,12.53
2022-12-14T00:37:36.838Z,13.27
2022-12-14T00:40:07.069Z,13.67
2022-12-14T00:42:35.811Z,12.67
2022-12-14T00:45:09.044Z,13.27
2022-12-14T00:47:40.871Z,13.67
2022-12-14T00:50:10.473Z,13.43
2022-12-14T00:52:41.136Z,12.00
2022-12-14T00:55:10.650Z,14.43
2022-12-14T00:57:39.282Z,15.13
2022-12-14T01:00:11.730Z,14.27
2022-12-14T01:02:40.500Z,13.80
2022-12-14T01:05:09.694Z,14.43
2022-12-14T01:07:38.308Z,14.43
2022-12-14T01:10:07.697Z,15.77
2022-12-14T01:12:36.265Z,14.50
2022-12-14T01:15:05.473Z,14.23
2022-12-14T01:17:36.577Z,13.83
2022-12-14T01:20:05.819Z,14.77
2022-12-14T01:22:34.429Z,14.73
2022-12-14T01:25:03.385Z,14.93
2022-12-14T01:27:32.054Z,14.17
2022-12-14T01:30:00.743Z,14.13
2022-12-14T01:32:29.465Z,15.50
2022-12-14T01:34:59.279Z,15.30
2022-12-14T01:37:28.989Z,15.30
2022-12-14T01:39:57.652Z,15.63
2022-12-14T01:42:26.113Z,15.03
2022-12-14T01:44:58.458Z,15.73
2022-12-14T01:47:38.280Z,13.97
2022-12-14T01:50:16.390Z,15.23
2022-12-14T01:52:48.568Z,15.67
2022-12-14T01:55:26.288Z,14.50
2022-12-14T01:57:59.747Z,14.73
2022-12-14T02:00:28.209Z,15.77
2022-12-14T02:03:01.866Z,14.90
2022-12-14T02:05:35.589Z,15.63
2022-12-14T02:08:04.794Z,15.73
2022-12-14T02:10:34.245Z,14.97
2022-12-14T02:13:08.227Z,16.10
2022-12-14T02:15:38.384Z,15.90
2022-12-14T02:18:09.312Z,15.73
2022-12-14T02:20:48.849Z,15.30
2022-12-14T02:23:53.050Z,16.00
2022-12-14T02:26:53.501Z,16.07
2022-12-14T02:29:54.088Z,14.60
2022-12-14T02:32:38.239Z,16.40
2022-12-14T02:35:16.898Z,16.53
2022-12-14T02:37:55.220Z,16.13
2022-12-14T02:40:31.381Z,17.13
2022-12-14T02:43:10.077Z,15.53
2022-12-14T02:45:45.443Z,15.80
2022-12-14T02:48:20.415Z,15.70
2022-12-14T02:50:59.456Z,15.47
2022-12-14T02:53:32.611Z,14.70
2022-12-14T02:56:07.641Z,15.43
2022-12-14T02:58:40.523Z,15.43
2022-12-14T03:01:15.404Z,15.03
2022-12-14T03:03:44.864Z,15.57
2022-12-14T03:06:26.291Z,16.63
2022-12-14T03:08:59.717Z,16.40
2022-12-14T03:11:33.328Z,15.90
2022-12-14T03:14:08.026Z,15.70
2022-12-14T03:16:42.707Z,15.73
2022-12-14T03:19:19.242Z,16.00
2022-12-14T03:21:51.803Z,16.43
2022-12-14T03:24:25.566Z,15.27
2022-12-14T03:27:00.526Z,14.23
2022-12-14T03:29:31.380Z,14.83
2022-12-14T03:32:04.640Z,14.43
2022-12-14T03:34:38.088Z,15.30
2022-12-14T03:37:12.646Z,15.50
2022-12-14T03:39:43.645Z,13.40
2022-12-14T03:42:19.967Z,15.63
2022-12-14T03:44:52.647Z,15.37
2022-12-14T03:47:40.746Z,15.13
2022-12-14T03:50:14.669Z,16.83
2022-12-14T03:52:50.737Z,15.23
2022-12-14T03:55:28.280Z,16.40
2022-12-14T03:58:26.438Z,15.77
2022-12-14T04:01:03.260Z,15.57
2022-12-14T04:03:44.213Z,16.90
2022-12-14T04:06:22.463Z,16.50
2022-12-14T04:09:00.792Z,16.07
2022-12-14T04:11:49.242Z,16.60
2022-12-14T04:14:40.178Z,15.90
2022-12-14T04:17:31.897Z,14.37
2022-12-14T04:20:09.173Z,15.10
2022-12-14T04:22:45.294Z,14.80
2022-12-14T04:25:35.861Z,15.33
2022-12-14T04:28:32.434Z,15.63
2022-12-14T04:31:06.423Z,14.63
2022-12-14T04:33:50.666Z,16.43
2022-12-14T04:36:25.777Z,15.03
2022-12-14T04:39:00.562Z,14.73
2022-12-14T04:41:33.525Z,15.60
2022-12-14T04:44:07.216Z,15.33
2022-12-14T04:46:40.961Z,15.73
2022-12-14T04:49:19.381Z,16.63
2022-12-14T04:52:01.954Z,15.37
2022-12-14T04:54:40.265Z,16.00
2022-12-14T04:57:19.106Z,16.33
2022-12-14T04:59:48.920Z,16.17
2022-12-14T05:02:26.647Z,15.50
2022-12-14T05:05:04.632Z,14.37
2022-12-14T05:07:48.958Z,15.60
2022-12-14T05:10:20.740Z,15.57
2022-12-14T05:12:57.079Z,14.60
2022-12-14T05:15:28.623Z,15.13
2022-12-14T05:17:57.840Z,17.10
2022-12-14T05:20:26.312Z,17.20
2022-12-14T05:22:55.919Z,16.17
2022-12-14T05:25:24.102Z,16.67
2022-12-14T05:27:52.414Z,17.77
2022-12-14T05:30:20.843Z,17.27
2022-12-14T05:32:49.147Z,17.10
2022-12-14T05:35:17.423Z,15.60
2022-12-14T05:37:45.790Z,16.50
2022-12-14T05:40:20.064Z,16.10
2022-12-14T05:42:55.239Z,16.20
2022-12-14T05:45:24.014Z,15.90
2022-12-14T05:47:53.219Z,14.67
2022-12-14T05:50:21.512Z,16.17
2022-12-14T05:52:52.016Z,14.73
2022-12-14T05:55:22.781Z,15.43
2022-12-14T05:57:50.965Z,15.10
2022-12-14T06:00:20.780Z,13.63
2022-12-14T06:02:49.078Z,16.77
2022-12-14T06:05:17.475Z,15.40
2022-12-14T06:07:45.594Z,15.60
2022-12-14T06:10:13.856Z,14.53
2022-12-14T06:12:43.607Z,14.77
2022-12-14T06:15:14.096Z,14.67
2022-12-14T06:17:44.523Z,13.73
2022-12-14T06:20:13.257Z,15.20
2022-12-14T06:22:47.381Z,15.77
2022-12-14T06:25:16.272Z,14.77
2022-12-14T06:27:45.961Z,14.70
2022-12-14T06:30:14.616Z,16.13
2022-12-14T06:32:42.983Z,16.27
2022-12-14T06:35:11.575Z,15.63
2022-12-14T06:37:43.702Z,15.20
2022-12-14T06:40:17.280Z,16.13
2022-12-14T06:42:48.781Z,15.87
2022-12-14T06:45:17.268Z,15.70
2022-12-14T06:47:45.575Z,15.50
2022-12-14T06:50:19.749Z,16.27
2022-12-14T06:52:50.593Z,15.70
2022-12-14T06:55:19.280Z,14.17
2022-12-14T06:57:51.356Z,15.00
2022-12-14T07:00:20.322Z,14.73
2022-12-14T07:02:48.921Z,15.80
2022-12-14T07:05:17.808Z,15.67
2022-12-14T07:07:46.084Z,14.63
2022-12-14T07:10:14.895Z,14.53
2022-12-14T07:12:43.252Z,15.13
2022-12-14T07:15:13.242Z,14.97
2022-12-14T07:17:42.602Z,14.53
2022-12-14T07:20:11.986Z,13.83
2022-12-14T07:22:40.749Z,14.23
2022-12-14T07:25:10.196Z,14.50
2022-12-14T07:27:38.615Z,14.10
2022-12-14T07:30:09.287Z,14.43
2022-12-14T07:32:39.158Z,15.57
2022-12-14T07:35:11.798Z,15.37
2022-12-14T07:37:49.336Z,14.80
2022-12-14T07:40:17.864Z,14.17
2022-12-14T07:42:49.545Z,13.90
2022-12-14T07:45:17.914Z,15.07
2022-12-14T07:47:48.599Z,14.40
2022-12-14T07:50:22.707Z,14.00
2022-12-14T07:52:50.831Z,13.67
2022-12-14T07:55:19.077Z,14.17
2022-12-14T07:57:48.351Z,14.67
2022-12-14T08:00:18.336Z,13.57
2022-12-14T08:02:47.962Z,13.87
2022-12-14T08:05:16.480Z,14.03
2022-12-14T08:07:44.915Z,14.67
2022-12-14T08:10:13.562Z,14.60
2022-12-14T08:12:42.763Z,15.63
2022-12-14T08:15:11.123Z,13.90
2022-12-14T08:17:40.327Z,15.47
2022-12-14T08:20:12.726Z,14.50
2022-12-14T08:22:40.964Z,13.90
2022-12-14T08:25:10.474Z,13.40
2022-12-14T08:27:41.972Z,15.57
2022-12-14T08:30:11.644Z,14.93
2022-12-14T08:32:40.819Z,15.37
2022-12-14T08:35:10.876Z,14.70
2022-12-14T08:37:44.179Z,15.50
2022-12-14T08:40:15.789Z,13.83
2022-12-14T08:42:43.878Z,12.93
2022-12-14T08:45:13.044Z,13.40
2022-12-14T08:47:41.215Z,13.37
2022-12-14T08:50:11.908Z,14.73
2022-12-14T08:52:40.437Z,14.00
2022-12-14T08:57:51.119Z,14.17
2022-12-14T09:00:19.579Z,13.17
2022-12-14T09:02:51.580Z,13.40
2022-12-14T09:05:21.261Z,12.87
2022-12-14T09:07:49.436Z,13.03
2022-12-14T09:13:07.182Z,12.53
2022-12-14T09:15:35.486Z,14.73
2022-12-14T09:18:03.755Z,12.77
2022-12-14T09:20:34.361Z,14.43
2022-12-14T09:23:02.910Z,14.13
2022-12-14T09:25:32.165Z,13.43
2022-12-14T09:28:00.501Z,11.93
2022-12-14T09:30:28.724Z,13.70
2022-12-14T09:32:57.210Z,13.33
2022-12-14T09:35:27.305Z,13.63
2022-12-14T09:37:58.078Z,13.40
2022-12-14T09:40:32.409Z,12.17
2022-12-14T09:43:05.412Z,13.03
2022-12-14T09:45:36.239Z,13.27
2022-12-14T09:48:12.662Z,13.90
2022-12-14T09:50:41.496Z,12.60
2022-12-14T09:53:15.661Z,13.60
2022-12-14T09:55:46.983Z,12.60
2022-12-14T09:58:20.139Z,12.83
2022-12-14T10:00:53.905Z,13.23
2022-12-14T10:03:51.057Z,12.83
2022-12-14T10:06:39.505Z,12.63
2022-12-14T10:12:49.414Z,13.23
2022-12-14T10:15:25.891Z,12.50
2022-12-14T10:18:58.211Z,13.20
2022-12-14T10:21:23.492Z,12.93
2022-12-14T10:23:56.904Z,13.43
2022-12-14T10:29:44.994Z,13.57
2022-12-14T10:32:21.410Z,12.70
2022-12-14T10:34:50.261Z,13.10
2022-12-14T10:37:25.687Z,12.80
2022-12-14T10:40:12.686Z,13.47
2022-12-14T10:42:53.568Z,12.50
2022-12-14T10:45:41.481Z,11.70
2022-12-14T10:48:26.921Z,13.53
2022-12-14T10:51:01.541Z,11.77
2022-12-14T10:53:40.187Z,11.33
2022-12-14T10:56:15.029Z,12.50
2022-12-14T10:58:43.304Z,11.20
2022-12-14T11:03:52.145Z,13.43
2022-12-14T11:06:21.394Z,12.27
2022-12-14T11:08:51.644Z,11.50
2022-12-14T11:11:23.812Z,11.60
2022-12-14T11:13:56.374Z,10.90
2022-12-14T11:16:36.514Z,12.13
2022-12-14T11:19:20.859Z,11.60
2022-12-14T11:21:50.391Z,11.37
2022-12-14T11:24:24.444Z,11.47
2022-12-14T11:26:54.852Z,10.90
2022-12-14T11:29:31.487Z,12.20
2022-12-14T11:32:00.704Z,12.17
2022-12-14T11:34:35.976Z,11.23
2022-12-14T11:37:15.665Z,10.77
2022-12-14T11:39:44.046Z,12.20
2022-12-14T11:42:19.240Z,11.80
2022-12-14T11:44:49.019Z,10.50
2022-12-14T11:47:19.360Z,11.37
2022-12-14T11:49:50.820Z,12.07
2022-12-14T11:52:20.684Z,11.47
2022-12-14T11:57:29.304Z,11.90
2022-12-14T12:00:00.103Z,12.23
2022-12-14T12:02:31.912Z,12.10
2022-12-14T12:05:06.767Z,13.03
2022-12-14T12:07:37.529Z,11.63
2022-12-14T12:10:16.709Z,11.80
2022-12-14T12:12:54.825Z,12.90
2022-12-14T12:15:26.265Z,13.70
2022-12-14T12:17:58.565Z,11.80
2022-12-14T12:20:34.881Z,12.03
2022-12-14T12:23:09.001Z,13.63
2022-12-14T12:25:38.723Z,12.50
2022-12-14T12:28:16.825Z,13.93
2022-12-14T12:30:50.851Z,13.77
2022-12-14T12:36:00.480Z,11.37
2022-12-14T12:38:53.092Z,11.67
2022-12-14T12:41:31.826Z,12.00
2022-12-14T12:44:11.141Z,12.13
2022-12-14T12:47:15.039Z,12.10
2022-12-14T12:49:35.146Z,12.57
2022-12-14T12:52:09.700Z,12.53
2022-12-14T12:54:43.127Z,12.70
2022-12-14T12:57:13.884Z,11.97
2022-12-14T12:59:47.382Z,11.83
2022-12-14T13:02:26.605Z,11.60
2022-12-14T13:04:56.302Z,11.93
2022-12-14T13:07:34.331Z,13.27
2022-12-14T13:10:13.832Z,11.57
2022-12-14T13:12:48.791Z,11.87
2022-12-14T13:15:23.401Z,11.90
2022-12-14T13:17:56.620Z,11.67
2022-12-14T13:20:29.962Z,12.13
2022-12-14T13:23:15.155Z,11.67
2022-12-14T13:26:07.180Z,11.40
2022-12-14T13:31:26.382Z,12.10
2022-12-14T13:34:12.469Z,11.83
2022-12-14T13:37:16.960Z,11.50
2022-12-14T13:40:18.446Z,11.63
2022-12-14T13:42:58.211Z,12.83
2022-12-14T13:45:31.903Z,12.20
2022-12-14T13:48:00.553Z,11.30
2022-12-14T13:50:36.761Z,11.43
2022-12-14T13:53:09.033Z,12.10
2022-12-14T13:55:41.010Z,13.37
2022-12-14T13:58:20.230Z,12.83
2022-12-14T14:00:55.020Z,12.80
2022-12-14T14:03:46.728Z,12.43
2022-12-14T14:06:22.451Z,13.93
2022-12-14T14:08:52.681Z,12.20
2022-12-14T14:11:56.352Z,13.47
2022-12-14T14:14:39.229Z,14.33
2022-12-14T14:17:14.944Z,12.23
2022-12-14T14:19:43.591Z,13.00
2022-12-14T14:22:25.302Z,13.03
2022-12-14T14:27:37.631Z,14.10
2022-12-14T14:30:26.645Z,13.97
2022-12-14T14:33:19.902Z,14.47
2022-12-14T14:35:49.875Z,15.03
2022-12-14T14:38:27.986Z,14.90
2022-12-14T14:41:16.583Z,13.57
2022-12-14T14:43:54.195Z,13.30
2022-12-14T14:46:33.202Z,12.80
2022-12-14T14:49:02.075Z,13.17
2022-12-14T14:51:33.923Z,12.50
2022-12-14T15:00:53.837Z,13.70
2022-12-14T15:03:27.841Z,12.40
2022-12-14T15:05:56.618Z,14.13
2022-12-14T15:08:34.949Z,13.77
2022-12-14T15:11:08.980Z,13.50
2022-12-14T15:13:46.521Z,13.93
2022-12-14T15:16:30.539Z,19.70
2022-12-14T15:19:34.015Z,16.33
2022-12-14T15:22:06.089Z,14.20
2022-12-14T15:24:40.817Z,14.97
2022-12-14T15:27:19.526Z,14.67
2022-12-14T15:29:49.344Z,14.90
2022-12-14T15:35:17.121Z,13.93
2022-12-14T15:37:54.711Z,14.93
2022-12-14T15:40:28.461Z,14.97
2022-12-14T15:42:59.812Z,15.00
2022-12-14T15:45:30.361Z,15.77
2022-12-14T15:48:14.135Z,16.80
2022-12-14T15:50:46.555Z,17.50
2022-12-14T15:53:20.114Z,16.93
2022-12-14T15:56:00.235Z,16.30
2022-12-14T15:58:33.476Z,15.67
2022-12-14T16:01:11.716Z,16.10
2022-12-14T16:03:43.612Z,16.23
2022-12-14T16:06:14.543Z,16.60
2022-12-14T16:09:01.420Z,16.07
2022-12-14T16:11:37.041Z,16.17
2022-12-14T16:14:18.947Z,18.93
2022-12-14T16:16:48.174Z,17.07
2022-12-14T16:19:27.713Z,17.77
2022-12-14T16:22:19.673Z,16.93
2022-12-14T16:25:16.829Z,18.33
2022-12-14T16:27:50.035Z,17.03
2022-12-14T16:30:23.022Z,17.27
2022-12-14T16:32:54.346Z,17.80
2022-12-14T16:35:25.836Z,16.87
2022-12-14T16:37:56.715Z,18.30
2022-12-14T16:40:35.731Z,17.73
2022-12-14T16:43:05.493Z,17.70
2022-12-14T16:46:10.245Z,17.33
2022-12-14T16:48:42.150Z,17.83
2022-12-14T16:51:44.813Z,18.23
2022-12-14T16:54:28.224Z,17.80
2022-12-14T16:57:02.753Z,19.07
2022-12-14T16:59:43.208Z,19.30
2022-12-14T17:02:31.862Z,20.77
2022-12-14T17:05:03.386Z,20.33
2022-12-14T17:07:33.190Z,20.33
2022-12-14T17:10:04.043Z,19.23
2022-12-14T17:12:32.855Z,18.63
2022-12-14T17:15:01.358Z,17.97
2022-12-14T17:17:33.979Z,19.33
2022-12-14T17:20:02.798Z,19.53
2022-12-14T17:22:34.146Z,19.90
2022-12-14T17:25:08.234Z,20.17
2022-12-14T17:27:36.789Z,18.53
2022-12-14T17:30:05.875Z,19.93
2022-12-14T17:32:34.455Z,19.33
2022-12-14T17:35:03.858Z,21.57
2022-12-14T17:37:36.534Z,19.33
2022-12-14T17:40:08.204Z,19.03
2022-12-14T17:42:39.310Z,19.20
2022-12-14T17:45:18.361Z,19.83
2022-12-14T17:47:46.729Z,22.97
2022-12-14T17:50:16.277Z,20.20
2022-12-14T17:52:44.775Z,19.90
2022-12-14T17:55:20.342Z,20.87
2022-12-14T17:57:49.040Z,21.13
2022-12-14T18:00:35.942Z,21.90
2022-12-14T18:03:05.713Z,21.57
2022-12-14T18:05:34.573Z,20.83
2022-12-14T18:08:03.384Z,22.07
2022-12-14T18:10:33.455Z,23.17
2022-12-14T18:13:02.861Z,24.07
2022-12-14T18:15:36.588Z,23.33
2022-12-14T18:18:06.229Z,23.07
2022-12-14T18:20:34.560Z,21.77
2022-12-14T18:23:03.082Z,22.90
2022-12-14T18:25:35.169Z,23.00
2022-12-14T18:28:05.517Z,22.47
2022-12-14T18:30:40.576Z,23.20
2022-12-14T18:33:14.617Z,23.27
2022-12-14T18:35:44.170Z,22.97
2022-12-14T18:38:12.880Z,22.50
2022-12-14T18:40:49.485Z,23.07
2022-12-14T18:43:21.789Z,22.80
2022-12-14T18:45:50.237Z,24.60
2022-12-14T18:48:19.509Z,23.23
2022-12-14T18:50:49.949Z,23.80
2022-12-14T18:53:20.630Z,22.87
2022-12-14T18:55:50.807Z,24.53
2022-12-14T18:58:21.314Z,22.93
2022-12-14T19:03:33.715Z,23.67
2022-12-14T19:06:42.172Z,23.30
2022-12-14T19:09:01.438Z,24.57
2022-12-14T19:11:34.408Z,26.40
2022-12-14T19:14:03.114Z,23.70
2022-12-14T19:16:32.004Z,24.73
2022-12-14T19:19:00.868Z,24.53
2022-12-14T19:21:31.635Z,22.30
2022-12-14T19:24:00.474Z,24.20
2022-12-14T19:26:30.840Z,24.20
2022-12-14T19:28:59.245Z,25.43
2022-12-14T19:31:27.751Z,24.30
2022-12-14T19:33:56.365Z,24.87
2022-12-14T19:36:27.317Z,25.30
2022-12-14T19:38:55.720Z,26.70
2022-12-14T19:41:24.229Z,24.50
2022-12-14T19:43:56.828Z,23.93
2022-12-14T19:46:25.413Z,23.57
2022-12-14T19:48:53.771Z,24.90
2022-12-14T19:51:22.914Z,25.03
2022-12-14T19:53:52.901Z,25.97
2022-12-14T19:56:21.411Z,27.00
2022-12-14T19:58:50.089Z,49.20
2022-12-14T20:01:20.479Z,36.57
2022-12-14T20:03:50.841Z,28.53
2022-12-14T20:06:19.360Z,26.87
2022-12-14T20:08:58.328Z,26.87
2022-12-14T20:11:26.681Z,26.13
2022-12-14T20:13:59.943Z,25.53
2022-12-14T20:19:23.492Z,29.37
2022-12-14T20:21:51.769Z,25.30
2022-12-14T20:24:20.300Z,25.53
2022-12-14T20:26:49.371Z,25.53
2022-12-14T20:29:17.686Z,27.23
2022-12-14T20:31:46.194Z,26.13
2022-12-14T20:34:14.692Z,26.17
2022-12-14T20:36:44.404Z,27.53
2022-12-14T20:39:12.657Z,24.43
2022-12-14T20:41:41.317Z,26.43
2022-12-14T20:44:12.000Z,25.67
2022-12-14T20:46:42.255Z,26.07
2022-12-14T20:49:19.251Z,26.13
2022-12-14T20:51:49.473Z,26.03
2022-12-14T20:54:19.628Z,26.50
2022-12-14T20:56:49.419Z,30.00
2022-12-14T20:59:18.696Z,27.10
2022-12-14T21:01:53.569Z,25.90
2022-12-14T21:04:23.760Z,26.70
2022-12-14T21:06:53.659Z,27.57
2022-12-14T21:09:21.945Z,27.90
2022-12-14T21:12:08.610Z,27.70
2022-12-14T21:14:40.624Z,26.03
2022-12-14T21:17:09.711Z,27.43
2022-12-14T21:19:38.924Z,26.17
2022-12-14T21:22:14.351Z,27.73
2022-12-14T21:27:35.813Z,28.63
2022-12-14T21:30:04.284Z,27.43
2022-12-14T21:32:36.033Z,28.43
2022-12-14T21:35:04.624Z,25.57
2022-12-14T21:37:34.471Z,27.90
2022-12-14T21:40:03.883Z,28.60
2022-12-14T21:42:31.230Z,27.73
2022-12-14T21:45:00.851Z,27.23
2022-12-14T21:47:30.558Z,28.50
2022-12-14T21:49:59.119Z,29.67
2022-12-14T21:52:29.627Z,28.70
2022-12-14T21:54:59.955Z,27.07
2022-12-14T21:57:50.250Z,29.00
2022-12-14T22:00:19.826Z,29.53
2022-12-14T22:02:48.276Z,27.90
2022-12-14T22:05:16.904Z,26.23
2022-12-14T22:07:45.215Z,27.27
2022-12-14T22:10:16.723Z,28.57
2022-12-14T22:12:48.440Z,28.43
2022-12-14T22:15:16.849Z,27.97
2022-12-14T22:17:46.071Z,28.83
2022-12-14T22:20:14.701Z,28.83
2022-12-14T22:22:44.896Z,28.70
2022-12-14T22:25:15.513Z,28.77
2022-12-14T22:27:44.532Z,29.47
2022-12-14T22:30:18.442Z,28.30
2022-12-14T22:32:47.922Z,30.07
2022-12-14T22:35:16.264Z,28.60
2022-12-14T22:37:45.568Z,26.90
2022-12-14T22:40:21.112Z,29.07
2022-12-14T22:42:49.251Z,29.77
2022-12-14T22:45:17.567Z,28.43
2022-12-14T22:47:45.913Z,28.33
2022-12-14T22:50:14.373Z,28.73
2022-12-14T22:52:42.724Z,29.33
2022-12-14T22:55:12.073Z,28.73
2022-12-14T22:57:46.163Z,30.27
2022-12-14T23:00:17.077Z,32.17
2022-12-14T23:02:48.085Z,30.10
2022-12-14T23:05:17.333Z,31.87
2022-12-14T23:10:39.050Z,29.10
2022-12-14T23:13:27.377Z,29.43
2022-12-14T23:16:13.057Z,29.00
2022-12-14T23:18:58.834Z,30.50
2022-12-14T23:21:44.230Z,30.33
2022-12-14T23:24:29.911Z,41.30
2022-12-14T23:27:15.068Z,35.93
2022-12-14T23:30:02.133Z,34.03
2022-12-14T23:32:47.676Z,31.13
2022-12-14T23:35:36.278Z,28.97
2022-12-14T23:38:23.545Z,28.87
2022-12-14T23:41:09.000Z,28.97
2022-12-14T23:43:54.640Z,26.93
2022-12-14T23:46:41.841Z,29.67
2022-12-14T23:49:29.256Z,28.00
2022-12-14T23:52:14.673Z,27.63
2022-12-14T23:55:01.504Z,26.50
2022-12-14T23:57:47.184Z,25.93
